sensor_id;sensor_type;location;lat;lon;timestamp;P1;durP1;ratioP1;P2;durP2;ratioP2
72408;SDS011;60402;48.082;11.628;2024-02-04T00:00:45;5.30;;;2.30;;
72408;SDS011;60402;48.082;11.628;2024-02-04T00:03:30;7.45;;;2.55;;
72408;SDS011;60402;48.082;11.628;2024-02-04T00:06:16;6.68;;;2.70;;
72408;SDS011;60402;48.082;11.628;2024-02-04T00:09:02;5.63;;;2.38;;
72408;SDS011;60402;48.082;11.628;2024-02-04T00:11:50;4.85;;;2.22;;
72408;SDS011;60402;48.082;11.628;2024-02-04T00:14:36;5.85;;;2.40;;
72408;SDS011;60402;48.082;11.628;2024-02-04T00:17:22;5.60;;;2.28;;
72408;SDS011;60402;48.082;11.628;2024-02-04T00:20:07;5.65;;;2.42;;
72408;SDS011;60402;48.082;11.628;2024-02-04T00:22:53;5.43;;;2.40;;
72408;SDS011;60402;48.082;11.628;2024-02-04T00:25:39;5.50;;;2.20;;
72408;SDS011;60402;48.082;11.628;2024-02-04T00:28:26;4.85;;;2.10;;
72408;SDS011;60402;48.082;11.628;2024-02-04T00:31:15;5.93;;;2.60;;
72408;SDS011;60402;48.082;11.628;2024-02-04T00:34:01;5.25;;;2.50;;
72408;SDS011;60402;48.082;11.628;2024-02-04T00:36:46;5.60;;;2.40;;
72408;SDS011;60402;48.082;11.628;2024-02-04T00:39:32;7.10;;;2.70;;
72408;SDS011;60402;48.082;11.628;2024-02-04T00:42:18;6.70;;;2.80;;
72408;SDS011;60402;48.082;11.628;2024-02-04T00:45:03;6.13;;;2.97;;
72408;SDS011;60402;48.082;11.628;2024-02-04T00:47:49;5.95;;;2.67;;
72408;SDS011;60402;48.082;11.628;2024-02-04T00:50:35;5.80;;;2.78;;
72408;SDS011;60402;48.082;11.628;2024-02-04T00:53:20;7.25;;;3.17;;
72408;SDS011;60402;48.082;11.628;2024-02-04T00:56:06;8.45;;;3.05;;
72408;SDS011;60402;48.082;11.628;2024-02-04T00:58:52;6.90;;;3.17;;
72408;SDS011;60402;48.082;11.628;2024-02-04T01:01:38;6.35;;;2.97;;
72408;SDS011;60402;48.082;11.628;2024-02-04T01:04:24;6.30;;;2.97;;
72408;SDS011;60402;48.082;11.628;2024-02-04T01:07:09;6.07;;;2.78;;
72408;SDS011;60402;48.082;11.628;2024-02-04T01:09:55;7.10;;;3.17;;
72408;SDS011;60402;48.082;11.628;2024-02-04T01:12:40;7.10;;;2.90;;
72408;SDS011;60402;48.082;11.628;2024-02-04T01:15:26;7.53;;;2.88;;
72408;SDS011;60402;48.082;11.628;2024-02-04T01:18:12;7.68;;;3.08;;
72408;SDS011;60402;48.082;11.628;2024-02-04T01:20:58;7.32;;;3.30;;
72408;SDS011;60402;48.082;11.628;2024-02-04T01:23:45;9.07;;;2.95;;
72408;SDS011;60402;48.082;11.628;2024-02-04T01:26:31;6.80;;;3.03;;
72408;SDS011;60402;48.082;11.628;2024-02-04T01:29:16;7.28;;;3.38;;
72408;SDS011;60402;48.082;11.628;2024-02-04T01:32:03;7.40;;;2.75;;
72408;SDS011;60402;48.082;11.628;2024-02-04T01:34:48;6.97;;;3.17;;
72408;SDS011;60402;48.082;11.628;2024-02-04T01:37:34;6.95;;;3.28;;
72408;SDS011;60402;48.082;11.628;2024-02-04T01:40:20;7.70;;;3.15;;
72408;SDS011;60402;48.082;11.628;2024-02-04T01:43:05;6.70;;;3.28;;
72408;SDS011;60402;48.082;11.628;2024-02-04T01:45:51;7.25;;;3.60;;
72408;SDS011;60402;48.082;11.628;2024-02-04T01:48:37;8.45;;;3.63;;
72408;SDS011;60402;48.082;11.628;2024-02-04T01:51:23;7.55;;;3.03;;
72408;SDS011;60402;48.082;11.628;2024-02-04T01:54:09;6.55;;;2.95;;
72408;SDS011;60402;48.082;11.628;2024-02-04T01:56:55;8.50;;;3.80;;
72408;SDS011;60402;48.082;11.628;2024-02-04T01:59:42;7.55;;;3.40;;
72408;SDS011;60402;48.082;11.628;2024-02-04T02:02:29;7.25;;;3.03;;
72408;SDS011;60402;48.082;11.628;2024-02-04T02:05:18;7.47;;;3.55;;
72408;SDS011;60402;48.082;11.628;2024-02-04T02:08:04;7.57;;;3.20;;
72408;SDS011;60402;48.082;11.628;2024-02-04T02:10:51;6.93;;;3.10;;
72408;SDS011;60402;48.082;11.628;2024-02-04T02:13:50;7.18;;;3.30;;
72408;SDS011;60402;48.082;11.628;2024-02-04T02:16:46;8.35;;;3.38;;
72408;SDS011;60402;48.082;11.628;2024-02-04T02:19:50;7.00;;;3.17;;
72408;SDS011;60402;48.082;11.628;2024-02-04T02:22:48;8.50;;;3.35;;
72408;SDS011;60402;48.082;11.628;2024-02-04T02:25:36;6.93;;;3.22;;
72408;SDS011;60402;48.082;11.628;2024-02-04T02:28:23;7.35;;;3.30;;
72408;SDS011;60402;48.082;11.628;2024-02-04T02:31:08;7.30;;;3.40;;
72408;SDS011;60402;48.082;11.628;2024-02-04T02:33:54;5.47;;;2.80;;
72408;SDS011;60402;48.082;11.628;2024-02-04T02:36:43;6.80;;;3.20;;
72408;SDS011;60402;48.082;11.628;2024-02-04T02:39:31;7.22;;;3.22;;
72408;SDS011;60402;48.082;11.628;2024-02-04T02:42:20;6.88;;;3.25;;
72408;SDS011;60402;48.082;11.628;2024-02-04T02:47:55;7.20;;;3.03;;
72408;SDS011;60402;48.082;11.628;2024-02-04T02:50:42;8.90;;;3.20;;
72408;SDS011;60402;48.082;11.628;2024-02-04T02:53:27;9.02;;;3.58;;
72408;SDS011;60402;48.082;11.628;2024-02-04T02:56:13;8.02;;;3.30;;
72408;SDS011;60402;48.082;11.628;2024-02-04T02:58:59;8.05;;;3.22;;
72408;SDS011;60402;48.082;11.628;2024-02-04T03:01:44;7.20;;;3.20;;
72408;SDS011;60402;48.082;11.628;2024-02-04T03:04:30;7.18;;;2.90;;
72408;SDS011;60402;48.082;11.628;2024-02-04T03:07:15;7.25;;;3.17;;
72408;SDS011;60402;48.082;11.628;2024-02-04T03:10:01;7.25;;;3.10;;
72408;SDS011;60402;48.082;11.628;2024-02-04T03:12:47;7.40;;;3.10;;
72408;SDS011;60402;48.082;11.628;2024-02-04T03:15:32;8.23;;;3.17;;
72408;SDS011;60402;48.082;11.628;2024-02-04T03:18:18;6.90;;;2.97;;
72408;SDS011;60402;48.082;11.628;2024-02-04T03:21:04;6.20;;;2.65;;
72408;SDS011;60402;48.082;11.628;2024-02-04T03:23:50;6.65;;;2.92;;
72408;SDS011;60402;48.082;11.628;2024-02-04T03:26:35;6.57;;;3.03;;
72408;SDS011;60402;48.082;11.628;2024-02-04T03:29:21;6.95;;;2.78;;
72408;SDS011;60402;48.082;11.628;2024-02-04T03:32:06;7.68;;;3.10;;
72408;SDS011;60402;48.082;11.628;2024-02-04T03:34:52;6.95;;;2.83;;
72408;SDS011;60402;48.082;11.628;2024-02-04T03:37:38;7.47;;;3.22;;
72408;SDS011;60402;48.082;11.628;2024-02-04T03:40:23;7.03;;;2.95;;
72408;SDS011;60402;48.082;11.628;2024-02-04T03:43:10;7.90;;;3.08;;
72408;SDS011;60402;48.082;11.628;2024-02-04T03:45:55;5.68;;;2.33;;
72408;SDS011;60402;48.082;11.628;2024-02-04T03:48:41;6.82;;;2.50;;
72408;SDS011;60402;48.082;11.628;2024-02-04T03:51:27;6.60;;;2.80;;
72408;SDS011;60402;48.082;11.628;2024-02-04T03:54:13;5.97;;;2.85;;
72408;SDS011;60402;48.082;11.628;2024-02-04T03:56:58;6.63;;;2.70;;
72408;SDS011;60402;48.082;11.628;2024-02-04T03:59:44;7.00;;;2.53;;
72408;SDS011;60402;48.082;11.628;2024-02-04T04:02:31;6.03;;;2.28;;
72408;SDS011;60402;48.082;11.628;2024-02-04T04:05:17;6.47;;;2.35;;
72408;SDS011;60402;48.082;11.628;2024-02-04T04:08:02;5.68;;;2.33;;
72408;SDS011;60402;48.082;11.628;2024-02-04T04:10:48;7.15;;;2.63;;
72408;SDS011;60402;48.082;11.628;2024-02-04T04:13:34;6.90;;;2.42;;
72408;SDS011;60402;48.082;11.628;2024-02-04T04:16:20;5.70;;;2.17;;
72408;SDS011;60402;48.082;11.628;2024-02-04T04:19:07;5.93;;;2.22;;
72408;SDS011;60402;48.082;11.628;2024-02-04T04:21:53;5.13;;;2.47;;
72408;SDS011;60402;48.082;11.628;2024-02-04T04:24:39;5.63;;;2.42;;
72408;SDS011;60402;48.082;11.628;2024-02-04T04:27:25;6.32;;;2.75;;
72408;SDS011;60402;48.082;11.628;2024-02-04T04:30:11;6.88;;;2.40;;
72408;SDS011;60402;48.082;11.628;2024-02-04T04:32:57;5.50;;;2.47;;
72408;SDS011;60402;48.082;11.628;2024-02-04T04:35:44;7.78;;;2.50;;
72408;SDS011;60402;48.082;11.628;2024-02-04T04:38:29;5.93;;;2.00;;
72408;SDS011;60402;48.082;11.628;2024-02-04T04:41:15;6.72;;;2.28;;
72408;SDS011;60402;48.082;11.628;2024-02-04T04:44:01;6.05;;;2.30;;
72408;SDS011;60402;48.082;11.628;2024-02-04T04:46:46;5.35;;;2.10;;
72408;SDS011;60402;48.082;11.628;2024-02-04T04:49:32;4.82;;;2.00;;
72408;SDS011;60402;48.082;11.628;2024-02-04T04:52:18;4.95;;;2.20;;
72408;SDS011;60402;48.082;11.628;2024-02-04T04:55:04;4.70;;;1.98;;
72408;SDS011;60402;48.082;11.628;2024-02-04T04:57:50;4.07;;;1.50;;
72408;SDS011;60402;48.082;11.628;2024-02-04T05:00:37;4.35;;;1.83;;
72408;SDS011;60402;48.082;11.628;2024-02-04T05:03:23;3.70;;;1.73;;
72408;SDS011;60402;48.082;11.628;2024-02-04T05:06:08;5.63;;;1.60;;
72408;SDS011;60402;48.082;11.628;2024-02-04T05:08:54;3.58;;;1.58;;
72408;SDS011;60402;48.082;11.628;2024-02-04T05:11:40;3.30;;;1.48;;
72408;SDS011;60402;48.082;11.628;2024-02-04T05:14:25;5.00;;;1.58;;
72408;SDS011;60402;48.082;11.628;2024-02-04T05:17:11;5.97;;;1.73;;
72408;SDS011;60402;48.082;11.628;2024-02-04T05:19:56;3.33;;;1.45;;
72408;SDS011;60402;48.082;11.628;2024-02-04T05:22:42;4.25;;;1.55;;
72408;SDS011;60402;48.082;11.628;2024-02-04T05:25:28;4.10;;;1.80;;
72408;SDS011;60402;48.082;11.628;2024-02-04T05:28:14;4.50;;;1.58;;
72408;SDS011;60402;48.082;11.628;2024-02-04T05:31:01;5.15;;;1.80;;
72408;SDS011;60402;48.082;11.628;2024-02-04T05:33:47;4.43;;;1.25;;
72408;SDS011;60402;48.082;11.628;2024-02-04T05:36:33;4.00;;;1.48;;
72408;SDS011;60402;48.082;11.628;2024-02-04T05:39:19;4.55;;;1.42;;
72408;SDS011;60402;48.082;11.628;2024-02-04T05:42:04;4.30;;;1.67;;
72408;SDS011;60402;48.082;11.628;2024-02-04T05:44:50;3.90;;;1.40;;
72408;SDS011;60402;48.082;11.628;2024-02-04T05:47:36;4.22;;;1.35;;
72408;SDS011;60402;48.082;11.628;2024-02-04T05:50:22;5.13;;;1.73;;
72408;SDS011;60402;48.082;11.628;2024-02-04T05:53:07;4.05;;;1.85;;
72408;SDS011;60402;48.082;11.628;2024-02-04T05:55:53;5.07;;;1.60;;
72408;SDS011;60402;48.082;11.628;2024-02-04T05:58:39;3.97;;;1.63;;
72408;SDS011;60402;48.082;11.628;2024-02-04T06:01:25;5.30;;;1.92;;
72408;SDS011;60402;48.082;11.628;2024-02-04T06:04:10;4.47;;;1.73;;
72408;SDS011;60402;48.082;11.628;2024-02-04T06:06:56;2.72;;;1.15;;
72408;SDS011;60402;48.082;11.628;2024-02-04T06:09:42;4.03;;;1.58;;
72408;SDS011;60402;48.082;11.628;2024-02-04T06:12:28;5.05;;;1.52;;
72408;SDS011;60402;48.082;11.628;2024-02-04T06:15:14;3.90;;;2.10;;
72408;SDS011;60402;48.082;11.628;2024-02-04T06:18:00;3.88;;;1.40;;
72408;SDS011;60402;48.082;11.628;2024-02-04T06:20:46;4.03;;;1.80;;
72408;SDS011;60402;48.082;11.628;2024-02-04T06:23:31;4.90;;;2.13;;
72408;SDS011;60402;48.082;11.628;2024-02-04T06:26:17;4.32;;;1.80;;
72408;SDS011;60402;48.082;11.628;2024-02-04T06:29:03;4.28;;;1.60;;
72408;SDS011;60402;48.082;11.628;2024-02-04T06:31:49;4.90;;;1.98;;
72408;SDS011;60402;48.082;11.628;2024-02-04T06:34:34;6.40;;;2.17;;
72408;SDS011;60402;48.082;11.628;2024-02-04T06:37:20;7.25;;;1.83;;
72408;SDS011;60402;48.082;11.628;2024-02-04T06:40:06;5.40;;;1.95;;
72408;SDS011;60402;48.082;11.628;2024-02-04T06:42:52;4.93;;;1.70;;
72408;SDS011;60402;48.082;11.628;2024-02-04T06:45:37;5.65;;;1.83;;
72408;SDS011;60402;48.082;11.628;2024-02-04T06:48:23;5.20;;;1.83;;
72408;SDS011;60402;48.082;11.628;2024-02-04T06:51:08;4.88;;;1.80;;
72408;SDS011;60402;48.082;11.628;2024-02-04T06:53:54;6.15;;;2.33;;
72408;SDS011;60402;48.082;11.628;2024-02-04T06:56:40;6.13;;;2.42;;
72408;SDS011;60402;48.082;11.628;2024-02-04T06:59:26;5.03;;;2.13;;
72408;SDS011;60402;48.082;11.628;2024-02-04T07:02:11;3.53;;;1.58;;
72408;SDS011;60402;48.082;11.628;2024-02-04T07:04:57;6.93;;;2.40;;
72408;SDS011;60402;48.082;11.628;2024-02-04T07:07:43;9.32;;;2.58;;
72408;SDS011;60402;48.082;11.628;2024-02-04T07:10:28;6.75;;;2.20;;
72408;SDS011;60402;48.082;11.628;2024-02-04T07:13:14;8.07;;;2.58;;
72408;SDS011;60402;48.082;11.628;2024-02-04T07:15:59;5.65;;;2.08;;
72408;SDS011;60402;48.082;11.628;2024-02-04T07:18:45;6.45;;;2.20;;
72408;SDS011;60402;48.082;11.628;2024-02-04T07:21:31;6.50;;;2.70;;
72408;SDS011;60402;48.082;11.628;2024-02-04T07:24:16;5.78;;;2.20;;
72408;SDS011;60402;48.082;11.628;2024-02-04T07:27:04;5.85;;;2.33;;
72408;SDS011;60402;48.082;11.628;2024-02-04T07:29:49;7.82;;;2.72;;
72408;SDS011;60402;48.082;11.628;2024-02-04T07:32:35;10.63;;;2.72;;
72408;SDS011;60402;48.082;11.628;2024-02-04T07:35:22;7.97;;;2.80;;
72408;SDS011;60402;48.082;11.628;2024-02-04T07:38:08;7.55;;;3.28;;
72408;SDS011;60402;48.082;11.628;2024-02-04T07:40:53;6.95;;;2.95;;
72408;SDS011;60402;48.082;11.628;2024-02-04T07:43:41;10.52;;;3.25;;
72408;SDS011;60402;48.082;11.628;2024-02-04T07:46:27;10.20;;;3.30;;
72408;SDS011;60402;48.082;11.628;2024-02-04T07:49:12;7.90;;;3.25;;
72408;SDS011;60402;48.082;11.628;2024-02-04T07:51:58;7.20;;;2.78;;
72408;SDS011;60402;48.082;11.628;2024-02-04T07:54:44;7.68;;;3.05;;
72408;SDS011;60402;48.082;11.628;2024-02-04T07:57:29;9.95;;;3.10;;
72408;SDS011;60402;48.082;11.628;2024-02-04T08:00:15;8.73;;;3.35;;
72408;SDS011;60402;48.082;11.628;2024-02-04T08:03:01;9.55;;;3.38;;
72408;SDS011;60402;48.082;11.628;2024-02-04T08:05:47;7.15;;;2.88;;
72408;SDS011;60402;48.082;11.628;2024-02-04T08:08:32;8.55;;;3.55;;
72408;SDS011;60402;48.082;11.628;2024-02-04T08:11:18;6.40;;;3.00;;
72408;SDS011;60402;48.082;11.628;2024-02-04T08:14:04;10.45;;;3.05;;
72408;SDS011;60402;48.082;11.628;2024-02-04T08:16:50;9.02;;;3.33;;
72408;SDS011;60402;48.082;11.628;2024-02-04T08:19:35;7.32;;;2.75;;
72408;SDS011;60402;48.082;11.628;2024-02-04T08:22:21;8.55;;;2.80;;
72408;SDS011;60402;48.082;11.628;2024-02-04T08:25:07;7.60;;;2.40;;
72408;SDS011;60402;48.082;11.628;2024-02-04T08:27:53;5.75;;;2.42;;
72408;SDS011;60402;48.082;11.628;2024-02-04T08:30:38;9.20;;;2.90;;
72408;SDS011;60402;48.082;11.628;2024-02-04T08:33:24;6.68;;;2.10;;
72408;SDS011;60402;48.082;11.628;2024-02-04T08:36:10;8.48;;;2.88;;
72408;SDS011;60402;48.082;11.628;2024-02-04T08:38:56;8.02;;;2.50;;
72408;SDS011;60402;48.082;11.628;2024-02-04T08:41:42;6.90;;;2.70;;
72408;SDS011;60402;48.082;11.628;2024-02-04T08:44:27;7.25;;;2.20;;
72408;SDS011;60402;48.082;11.628;2024-02-04T08:47:13;4.97;;;2.05;;
72408;SDS011;60402;48.082;11.628;2024-02-04T08:50:01;8.50;;;2.53;;
72408;SDS011;60402;48.082;11.628;2024-02-04T08:52:47;7.18;;;2.15;;
72408;SDS011;60402;48.082;11.628;2024-02-04T08:55:32;6.20;;;2.28;;
72408;SDS011;60402;48.082;11.628;2024-02-04T08:58:18;7.72;;;2.60;;
72408;SDS011;60402;48.082;11.628;2024-02-04T09:01:04;6.57;;;2.30;;
72408;SDS011;60402;48.082;11.628;2024-02-04T09:03:50;7.00;;;2.00;;
72408;SDS011;60402;48.082;11.628;2024-02-04T09:06:36;6.63;;;2.17;;
72408;SDS011;60402;48.082;11.628;2024-02-04T09:09:21;7.32;;;2.50;;
72408;SDS011;60402;48.082;11.628;2024-02-04T09:12:08;6.13;;;2.00;;
72408;SDS011;60402;48.082;11.628;2024-02-04T09:14:57;7.63;;;2.75;;
72408;SDS011;60402;48.082;11.628;2024-02-04T09:17:45;5.53;;;2.30;;
72408;SDS011;60402;48.082;11.628;2024-02-04T09:20:37;7.97;;;2.45;;
72408;SDS011;60402;48.082;11.628;2024-02-04T09:26:42;6.78;;;2.47;;
72408;SDS011;60402;48.082;11.628;2024-02-04T09:29:51;8.43;;;2.63;;
72408;SDS011;60402;48.082;11.628;2024-02-04T09:32:44;6.47;;;2.30;;
72408;SDS011;60402;48.082;11.628;2024-02-04T09:35:33;9.65;;;2.60;;
72408;SDS011;60402;48.082;11.628;2024-02-04T09:38:21;6.13;;;2.40;;
72408;SDS011;60402;48.082;11.628;2024-02-04T09:41:10;9.23;;;2.65;;
72408;SDS011;60402;48.082;11.628;2024-02-04T09:43:56;9.15;;;2.67;;
72408;SDS011;60402;48.082;11.628;2024-02-04T09:46:43;6.25;;;2.33;;
72408;SDS011;60402;48.082;11.628;2024-02-04T09:49:28;7.47;;;2.60;;
72408;SDS011;60402;48.082;11.628;2024-02-04T09:52:18;7.22;;;2.80;;
72408;SDS011;60402;48.082;11.628;2024-02-04T09:55:05;7.57;;;2.67;;
72408;SDS011;60402;48.082;11.628;2024-02-04T09:57:52;9.43;;;2.97;;
72408;SDS011;60402;48.082;11.628;2024-02-04T10:00:38;5.45;;;2.08;;
72408;SDS011;60402;48.082;11.628;2024-02-04T10:03:26;10.27;;;3.08;;
72408;SDS011;60402;48.082;11.628;2024-02-04T10:06:14;6.80;;;2.58;;
72408;SDS011;60402;48.082;11.628;2024-02-04T10:09:03;9.18;;;2.97;;
72408;SDS011;60402;48.082;11.628;2024-02-04T10:24:26;6.72;;;2.30;;
72408;SDS011;60402;48.082;11.628;2024-02-04T10:48:27;5.40;;;2.10;;
72408;SDS011;60402;48.082;11.628;2024-02-04T10:51:15;3.88;;;1.83;;
72408;SDS011;60402;48.082;11.628;2024-02-04T10:54:03;4.40;;;1.80;;
72408;SDS011;60402;48.082;11.628;2024-02-04T10:56:59;4.60;;;1.63;;
72408;SDS011;60402;48.082;11.628;2024-02-04T10:59:51;4.70;;;2.00;;
72408;SDS011;60402;48.082;11.628;2024-02-04T11:02:37;4.57;;;1.48;;
72408;SDS011;60402;48.082;11.628;2024-02-04T11:05:24;4.82;;;1.92;;
72408;SDS011;60402;48.082;11.628;2024-02-04T11:08:14;4.88;;;1.90;;
72408;SDS011;60402;48.082;11.628;2024-02-04T11:11:00;3.35;;;1.50;;
72408;SDS011;60402;48.082;11.628;2024-02-04T11:13:46;5.78;;;1.65;;
72408;SDS011;60402;48.082;11.628;2024-02-04T11:24:41;4.18;;;1.20;;
72408;SDS011;60402;48.082;11.628;2024-02-04T11:27:14;4.22;;;1.10;;
72408;SDS011;60402;48.082;11.628;2024-02-04T11:30:01;5.35;;;1.20;;
72408;SDS011;60402;48.082;11.628;2024-02-04T11:32:47;6.25;;;1.65;;
72408;SDS011;60402;48.082;11.628;2024-02-04T11:35:33;2.13;;;0.90;;
72408;SDS011;60402;48.082;11.628;2024-02-04T11:38:19;2.67;;;1.10;;
72408;SDS011;60402;48.082;11.628;2024-02-04T11:41:06;5.93;;;1.60;;
72408;SDS011;60402;48.082;11.628;2024-02-04T11:43:53;3.47;;;1.10;;
72408;SDS011;60402;48.082;11.628;2024-02-04T11:46:45;2.95;;;1.20;;
72408;SDS011;60402;48.082;11.628;2024-02-04T11:49:31;4.18;;;1.02;;
72408;SDS011;60402;48.082;11.628;2024-02-04T11:52:18;2.17;;;0.88;;
72408;SDS011;60402;48.082;11.628;2024-02-04T11:55:04;1.38;;;0.50;;
72408;SDS011;60402;48.082;11.628;2024-02-04T11:57:53;4.72;;;1.02;;
72408;SDS011;60402;48.082;11.628;2024-02-04T12:00:42;2.50;;;0.75;;
72408;SDS011;60402;48.082;11.628;2024-02-04T12:03:30;1.35;;;0.60;;
72408;SDS011;60402;48.082;11.628;2024-02-04T12:06:16;2.17;;;0.70;;
72408;SDS011;60402;48.082;11.628;2024-02-04T12:09:02;3.83;;;0.80;;
72408;SDS011;60402;48.082;11.628;2024-02-04T12:11:49;1.58;;;0.70;;
72408;SDS011;60402;48.082;11.628;2024-02-04T12:14:35;5.45;;;1.00;;
72408;SDS011;60402;48.082;11.628;2024-02-04T12:17:21;2.22;;;0.90;;
72408;SDS011;60402;48.082;11.628;2024-02-04T12:20:07;2.72;;;1.00;;
72408;SDS011;60402;48.082;11.628;2024-02-04T12:30:17;2.58;;;0.60;;
72408;SDS011;60402;48.082;11.628;2024-02-04T12:39:20;3.65;;;0.80;;
72408;SDS011;60402;48.082;11.628;2024-02-04T12:42:06;1.50;;;0.82;;
72408;SDS011;60402;48.082;11.628;2024-02-04T12:44:52;4.97;;;0.80;;
72408;SDS011;60402;48.082;11.628;2024-02-04T12:47:42;5.70;;;1.05;;
72408;SDS011;60402;48.082;11.628;2024-02-04T12:50:28;2.38;;;1.00;;
72408;SDS011;60402;48.082;11.628;2024-02-04T12:53:14;3.35;;;1.00;;
72408;SDS011;60402;48.082;11.628;2024-02-04T12:56:00;1.80;;;0.85;;
72408;SDS011;60402;48.082;11.628;2024-02-04T12:58:46;4.65;;;1.13;;
72408;SDS011;60402;48.082;11.628;2024-02-04T13:01:32;3.38;;;0.80;;
72408;SDS011;60402;48.082;11.628;2024-02-04T13:04:17;4.20;;;0.88;;
72408;SDS011;60402;48.082;11.628;2024-02-04T13:07:13;3.03;;;0.85;;
72408;SDS011;60402;48.082;11.628;2024-02-04T13:09:59;3.53;;;1.10;;
72408;SDS011;60402;48.082;11.628;2024-02-04T13:12:45;2.03;;;0.63;;
72408;SDS011;60402;48.082;11.628;2024-02-04T13:15:31;2.28;;;0.98;;
72408;SDS011;60402;48.082;11.628;2024-02-04T13:18:18;2.58;;;0.90;;
72408;SDS011;60402;48.082;11.628;2024-02-04T13:21:04;3.08;;;0.73;;
72408;SDS011;60402;48.082;11.628;2024-02-04T13:23:50;3.38;;;0.80;;
72408;SDS011;60402;48.082;11.628;2024-02-04T13:26:36;4.32;;;0.80;;
72408;SDS011;60402;48.082;11.628;2024-02-04T13:29:22;2.25;;;0.90;;
72408;SDS011;60402;48.082;11.628;2024-02-04T13:32:08;4.28;;;1.00;;
72408;SDS011;60402;48.082;11.628;2024-02-04T13:34:54;2.22;;;0.75;;
72408;SDS011;60402;48.082;11.628;2024-02-04T13:37:40;4.25;;;1.00;;
72408;SDS011;60402;48.082;11.628;2024-02-04T13:40:31;6.57;;;0.73;;
72408;SDS011;60402;48.082;11.628;2024-02-04T13:43:18;3.92;;;1.35;;
72408;SDS011;60402;48.082;11.628;2024-02-04T13:46:04;3.30;;;0.80;;
72408;SDS011;60402;48.082;11.628;2024-02-04T13:48:50;2.80;;;0.77;;
72408;SDS011;60402;48.082;11.628;2024-02-04T13:51:36;3.70;;;0.95;;
72408;SDS011;60402;48.082;11.628;2024-02-04T13:54:22;3.97;;;1.25;;
72408;SDS011;60402;48.082;11.628;2024-02-04T13:57:07;4.18;;;1.00;;
72408;SDS011;60402;48.082;11.628;2024-02-04T13:59:54;6.88;;;1.20;;
72408;SDS011;60402;48.082;11.628;2024-02-04T14:02:40;5.50;;;1.00;;
72408;SDS011;60402;48.082;11.628;2024-02-04T14:05:25;4.68;;;1.33;;
72408;SDS011;60402;48.082;11.628;2024-02-04T14:08:11;3.00;;;1.08;;
72408;SDS011;60402;48.082;11.628;2024-02-04T14:10:57;3.38;;;1.05;;
72408;SDS011;60402;48.082;11.628;2024-02-04T14:13:42;2.70;;;1.15;;
72408;SDS011;60402;48.082;11.628;2024-02-04T14:16:28;2.22;;;0.77;;
72408;SDS011;60402;48.082;11.628;2024-02-04T14:19:14;2.05;;;0.98;;
72408;SDS011;60402;48.082;11.628;2024-02-04T14:22:00;1.58;;;0.52;;
72408;SDS011;60402;48.082;11.628;2024-02-04T14:24:46;1.30;;;0.50;;
72408;SDS011;60402;48.082;11.628;2024-02-04T14:27:32;3.05;;;0.90;;
72408;SDS011;60402;48.082;11.628;2024-02-04T14:30:18;2.88;;;0.80;;
72408;SDS011;60402;48.082;11.628;2024-02-04T14:33:03;2.25;;;0.60;;
72408;SDS011;60402;48.082;11.628;2024-02-04T14:35:49;3.47;;;0.73;;
72408;SDS011;60402;48.082;11.628;2024-02-04T14:38:35;2.53;;;0.60;;
72408;SDS011;60402;48.082;11.628;2024-02-04T14:44:09;5.85;;;0.70;;
72408;SDS011;60402;48.082;11.628;2024-02-04T14:46:56;1.80;;;0.50;;
72408;SDS011;60402;48.082;11.628;2024-02-04T14:49:41;2.95;;;0.80;;
72408;SDS011;60402;48.082;11.628;2024-02-04T14:52:27;3.22;;;0.63;;
72408;SDS011;60402;48.082;11.628;2024-02-04T14:55:13;3.15;;;0.60;;
72408;SDS011;60402;48.082;11.628;2024-02-04T14:57:58;2.08;;;0.57;;
72408;SDS011;60402;48.082;11.628;2024-02-04T15:00:44;1.92;;;0.63;;
72408;SDS011;60402;48.082;11.628;2024-02-04T15:03:30;2.72;;;0.73;;
72408;SDS011;60402;48.082;11.628;2024-02-04T15:06:16;2.30;;;0.70;;
72408;SDS011;60402;48.082;11.628;2024-02-04T15:09:01;5.40;;;1.30;;
72408;SDS011;60402;48.082;11.628;2024-02-04T15:11:47;3.22;;;0.80;;
72408;SDS011;60402;48.082;11.628;2024-02-04T15:14:33;2.78;;;0.75;;
72408;SDS011;60402;48.082;11.628;2024-02-04T15:17:19;3.85;;;0.85;;
72408;SDS011;60402;48.082;11.628;2024-02-04T15:20:05;3.78;;;0.98;;
72408;SDS011;60402;48.082;11.628;2024-02-04T15:22:51;1.48;;;0.60;;
72408;SDS011;60402;48.082;11.628;2024-02-04T15:25:37;2.53;;;0.52;;
72408;SDS011;60402;48.082;11.628;2024-02-04T15:28:23;4.03;;;0.75;;
72408;SDS011;60402;48.082;11.628;2024-02-04T15:31:10;2.70;;;0.63;;
72408;SDS011;60402;48.082;11.628;2024-02-04T15:33:56;3.05;;;0.60;;
72408;SDS011;60402;48.082;11.628;2024-02-04T15:36:41;2.92;;;1.02;;
72408;SDS011;60402;48.082;11.628;2024-02-04T15:39:27;2.55;;;0.65;;
72408;SDS011;60402;48.082;11.628;2024-02-04T15:42:13;2.28;;;0.85;;
72408;SDS011;60402;48.082;11.628;2024-02-04T15:44:59;2.67;;;0.90;;
72408;SDS011;60402;48.082;11.628;2024-02-04T15:47:49;1.55;;;0.52;;
72408;SDS011;60402;48.082;11.628;2024-02-04T15:50:37;1.98;;;0.68;;
72408;SDS011;60402;48.082;11.628;2024-02-04T15:53:23;2.58;;;0.70;;
72408;SDS011;60402;48.082;11.628;2024-02-04T15:56:09;2.80;;;0.80;;
72408;SDS011;60402;48.082;11.628;2024-02-04T15:58:58;1.70;;;0.77;;
72408;SDS011;60402;48.082;11.628;2024-02-04T16:01:56;2.05;;;0.55;;
72408;SDS011;60402;48.082;11.628;2024-02-04T16:04:42;2.80;;;0.77;;
72408;SDS011;60402;48.082;11.628;2024-02-04T16:07:29;2.92;;;0.88;;
72408;SDS011;60402;48.082;11.628;2024-02-04T16:10:17;2.60;;;0.75;;
72408;SDS011;60402;48.082;11.628;2024-02-04T16:13:06;4.32;;;0.70;;
72408;SDS011;60402;48.082;11.628;2024-02-04T16:15:55;1.02;;;0.60;;
72408;SDS011;60402;48.082;11.628;2024-02-04T16:18:46;1.98;;;0.60;;
72408;SDS011;60402;48.082;11.628;2024-02-04T16:21:32;2.47;;;0.70;;
72408;SDS011;60402;48.082;11.628;2024-02-04T16:24:18;2.63;;;0.73;;
72408;SDS011;60402;48.082;11.628;2024-02-04T16:27:04;1.55;;;0.65;;
72408;SDS011;60402;48.082;11.628;2024-02-04T16:29:50;2.92;;;0.80;;
72408;SDS011;60402;48.082;11.628;2024-02-04T16:32:35;3.10;;;0.60;;
72408;SDS011;60402;48.082;11.628;2024-02-04T16:35:21;3.25;;;0.90;;
72408;SDS011;60402;48.082;11.628;2024-02-04T16:38:07;3.30;;;0.60;;
72408;SDS011;60402;48.082;11.628;2024-02-04T16:40:52;2.05;;;0.57;;
72408;SDS011;60402;48.082;11.628;2024-02-04T16:43:38;1.90;;;0.77;;
72408;SDS011;60402;48.082;11.628;2024-02-04T16:46:24;1.98;;;0.73;;
72408;SDS011;60402;48.082;11.628;2024-02-04T16:49:09;1.58;;;0.93;;
72408;SDS011;60402;48.082;11.628;2024-02-04T16:51:58;1.05;;;0.60;;
72408;SDS011;60402;48.082;11.628;2024-02-04T16:54:44;5.28;;;0.95;;
72408;SDS011;60402;48.082;11.628;2024-02-04T16:57:29;2.90;;;0.75;;
72408;SDS011;60402;48.082;11.628;2024-02-04T17:00:15;2.45;;;0.80;;
72408;SDS011;60402;48.082;11.628;2024-02-04T17:03:01;2.67;;;0.85;;
72408;SDS011;60402;48.082;11.628;2024-02-04T17:05:49;2.13;;;0.70;;
72408;SDS011;60402;48.082;11.628;2024-02-04T17:08:35;1.27;;;0.57;;
72408;SDS011;60402;48.082;11.628;2024-02-04T17:11:21;3.17;;;0.90;;
72408;SDS011;60402;48.082;11.628;2024-02-04T17:14:08;9.90;;;2.38;;
72408;SDS011;60402;48.082;11.628;2024-02-04T17:17:05;14.95;;;4.57;;
72408;SDS011;60402;48.082;11.628;2024-02-04T17:20:04;7.85;;;2.17;;
72408;SDS011;60402;48.082;11.628;2024-02-04T17:22:58;8.30;;;2.88;;
72408;SDS011;60402;48.082;11.628;2024-02-04T17:25:45;28.35;;;11.20;;
72408;SDS011;60402;48.082;11.628;2024-02-04T17:28:31;10.88;;;4.78;;
72408;SDS011;60402;48.082;11.628;2024-02-04T17:31:17;8.32;;;3.03;;